KAOO/AOO METAR and TAF weather

Enter ICAO airport designator
Station Type Date Time Source
KAOO METAR 2021/03/05 06:53 UTC NOAA

KAOO 050653Z AUTO 32008KT 10SM SCT031 SCT036 M07/M13 A3006 RMK AO2 SLP197 T10671128


Station Type Date Time Source
KAOO Decoded METAR 2021/03/05 06:53 UTC NOAA

ALTOONA-BLAIR COUNTY AIRPORT, PA, United States (KAOO) 40-18N 78-19W 455M
Mar 05, 2021 - 01:53 AM EST / 2021.03.05 0653 UTC
Wind: from the NW (320 degrees) at 9 MPH (8 KT):0
Visibility: 10 mile(s):0
Sky conditions: partly cloudy
Temperature: 19.9 F (-6.7 C)
Windchill: 8 F (-13 C):1
Dew Point: 9.0 F (-12.8 C)
Relative Humidity: 61%
Pressure (altimeter): 30.06 in. Hg (1017 hPa)
ob: KAOO 050653Z AUTO 32008KT 10SM SCT031 SCT036 M07/M13 A3006 RMK AO2 SLP197 T10671128
cycle: 7

Station Type Date Time Source
KAOO TAF 2021/03/05 06:33 UTC NOAA

TAF KAOO 050529Z 0506/0606 31013G22KT P6SM SKC
FM051000 31013G21KT P6SM FEW030
FM051800 30017G28KT P6SM FEW035

Example: see airport list